sensor_id;sensor_type;location;lat;lon;timestamp;temperature;humidity
44851;DHT22;30583;48.714;9.386;2023-03-03T00:01:05;4.80;69.10
44851;DHT22;30583;48.714;9.386;2023-03-03T00:03:31;4.80;69.30
44851;DHT22;30583;48.714;9.386;2023-03-03T00:05:57;4.70;69.30
44851;DHT22;30583;48.714;9.386;2023-03-03T00:08:23;4.50;70.00
44851;DHT22;30583;48.714;9.386;2023-03-03T00:10:49;4.40;70.50
44851;DHT22;30583;48.714;9.386;2023-03-03T00:13:20;4.70;70.10
44851;DHT22;30583;48.714;9.386;2023-03-03T00:15:46;4.60;70.00
44851;DHT22;30583;48.714;9.386;2023-03-03T00:20:55;5.00;68.60
44851;DHT22;30583;48.714;9.386;2023-03-03T00:25:49;4.70;68.80
44851;DHT22;30583;48.714;9.386;2023-03-03T00:28:30;4.50;69.60
44851;DHT22;30583;48.714;9.386;2023-03-03T00:30:58;4.70;69.70
44851;DHT22;30583;48.714;9.386;2023-03-03T00:33:28;4.70;68.90
44851;DHT22;30583;48.714;9.386;2023-03-03T00:38:42;4.70;68.80
44851;DHT22;30583;48.714;9.386;2023-03-03T00:41:25;4.40;69.70
44851;DHT22;30583;48.714;9.386;2023-03-03T00:43:51;4.30;69.80
44851;DHT22;30583;48.714;9.386;2023-03-03T00:46:19;4.20;70.00
44851;DHT22;30583;48.714;9.386;2023-03-03T00:48:45;4.30;70.00
44851;DHT22;30583;48.714;9.386;2023-03-03T00:51:30;4.40;69.90
44851;DHT22;30583;48.714;9.386;2023-03-03T00:53:57;4.30;70.10
44851;DHT22;30583;48.714;9.386;2023-03-03T00:56:24;4.30;70.60
44851;DHT22;30583;48.714;9.386;2023-03-03T00:58:50;4.40;70.10
44851;DHT22;30583;48.714;9.386;2023-03-03T01:01:17;4.60;68.60
44851;DHT22;30583;48.714;9.386;2023-03-03T01:03:43;4.50;68.50
44851;DHT22;30583;48.714;9.386;2023-03-03T01:06:09;4.20;68.80
44851;DHT22;30583;48.714;9.386;2023-03-03T01:08:35;4.50;68.40
44851;DHT22;30583;48.714;9.386;2023-03-03T01:11:22;4.40;68.20
44851;DHT22;30583;48.714;9.386;2023-03-03T01:13:49;3.90;69.40
44851;DHT22;30583;48.714;9.386;2023-03-03T01:16:16;4.00;69.50
44851;DHT22;30583;48.714;9.386;2023-03-03T01:18:41;4.20;69.10
44851;DHT22;30583;48.714;9.386;2023-03-03T01:21:08;4.10;69.10
44851;DHT22;30583;48.714;9.386;2023-03-03T01:23:34;4.20;68.50
44851;DHT22;30583;48.714;9.386;2023-03-03T01:26:00;3.60;69.80
44851;DHT22;30583;48.714;9.386;2023-03-03T01:28:26;3.90;69.50
44851;DHT22;30583;48.714;9.386;2023-03-03T01:30:51;3.70;69.70
44851;DHT22;30583;48.714;9.386;2023-03-03T01:33:18;3.80;69.50
44851;DHT22;30583;48.714;9.386;2023-03-03T01:35:44;4.00;69.10
44851;DHT22;30583;48.714;9.386;2023-03-03T01:38:10;3.70;69.90
44851;DHT22;30583;48.714;9.386;2023-03-03T01:40:36;3.50;71.00
44851;DHT22;30583;48.714;9.386;2023-03-03T01:43:03;3.40;71.20
44851;DHT22;30583;48.714;9.386;2023-03-03T01:48:17;3.70;70.50
44851;DHT22;30583;48.714;9.386;2023-03-03T01:56:05;3.30;71.80
44851;DHT22;30583;48.714;9.386;2023-03-03T01:58:35;3.40;71.60
44851;DHT22;30583;48.714;9.386;2023-03-03T02:01:04;3.20;71.50
44851;DHT22;30583;48.714;9.386;2023-03-03T02:03:32;2.80;72.50
44851;DHT22;30583;48.714;9.386;2023-03-03T02:06:02;3.20;71.60
44851;DHT22;30583;48.714;9.386;2023-03-03T02:08:35;3.60;70.00
44851;DHT22;30583;48.714;9.386;2023-03-03T02:11:03;3.60;69.60
44851;DHT22;30583;48.714;9.386;2023-03-03T02:13:31;3.30;70.50
44851;DHT22;30583;48.714;9.386;2023-03-03T02:15:56;3.40;70.20
44851;DHT22;30583;48.714;9.386;2023-03-03T02:18:23;3.40;70.20
44851;DHT22;30583;48.714;9.386;2023-03-03T02:26:15;3.10;71.60
44851;DHT22;30583;48.714;9.386;2023-03-03T02:28:42;3.20;71.80
44851;DHT22;30583;48.714;9.386;2023-03-03T02:31:11;3.00;72.50
44851;DHT22;30583;48.714;9.386;2023-03-03T02:33:41;3.00;72.40
44851;DHT22;30583;48.714;9.386;2023-03-03T02:36:11;2.90;72.60
44851;DHT22;30583;48.714;9.386;2023-03-03T02:44:10;3.20;72.10
44851;DHT22;30583;48.714;9.386;2023-03-03T02:46:38;3.10;72.50
44851;DHT22;30583;48.714;9.386;2023-03-03T02:49:06;3.20;72.60
44851;DHT22;30583;48.714;9.386;2023-03-03T02:51:33;2.90;73.10
44851;DHT22;30583;48.714;9.386;2023-03-03T02:53:59;3.00;73.40
44851;DHT22;30583;48.714;9.386;2023-03-03T02:56:25;3.30;72.80
44851;DHT22;30583;48.714;9.386;2023-03-03T02:58:50;3.60;71.60
44851;DHT22;30583;48.714;9.386;2023-03-03T03:01:16;3.50;71.50
44851;DHT22;30583;48.714;9.386;2023-03-03T03:03:42;3.60;71.90
44851;DHT22;30583;48.714;9.386;2023-03-03T03:06:08;3.60;71.70
44851;DHT22;30583;48.714;9.386;2023-03-03T03:08:33;3.60;71.80
44851;DHT22;30583;48.714;9.386;2023-03-03T03:10:59;3.50;72.20
44851;DHT22;30583;48.714;9.386;2023-03-03T03:13:25;3.20;73.00
44851;DHT22;30583;48.714;9.386;2023-03-03T03:15:51;3.20;73.50
44851;DHT22;30583;48.714;9.386;2023-03-03T03:18:17;3.50;72.70
44851;DHT22;30583;48.714;9.386;2023-03-03T03:20:42;3.60;71.90
44851;DHT22;30583;48.714;9.386;2023-03-03T03:23:09;3.50;72.30
44851;DHT22;30583;48.714;9.386;2023-03-03T03:25:35;3.50;72.10
44851;DHT22;30583;48.714;9.386;2023-03-03T03:28:07;3.50;71.90
44851;DHT22;30583;48.714;9.386;2023-03-03T03:30:34;3.60;71.80
44851;DHT22;30583;48.714;9.386;2023-03-03T03:33:00;3.40;71.90
44851;DHT22;30583;48.714;9.386;2023-03-03T03:35:25;3.50;72.00
44851;DHT22;30583;48.714;9.386;2023-03-03T03:37:51;3.60;72.10
44851;DHT22;30583;48.714;9.386;2023-03-03T03:40:16;3.80;71.20
44851;DHT22;30583;48.714;9.386;2023-03-03T03:42:42;3.70;71.80
44851;DHT22;30583;48.714;9.386;2023-03-03T03:45:08;3.90;71.10
44851;DHT22;30583;48.714;9.386;2023-03-03T03:47:33;3.90;70.90
44851;DHT22;30583;48.714;9.386;2023-03-03T03:49:59;3.70;71.50
44851;DHT22;30583;48.714;9.386;2023-03-03T03:52:24;3.60;72.10
44851;DHT22;30583;48.714;9.386;2023-03-03T03:54:50;3.90;71.50
44851;DHT22;30583;48.714;9.386;2023-03-03T03:57:15;3.90;71.40
44851;DHT22;30583;48.714;9.386;2023-03-03T03:59:41;3.80;71.60
44851;DHT22;30583;48.714;9.386;2023-03-03T04:02:07;3.70;72.00
44851;DHT22;30583;48.714;9.386;2023-03-03T04:04:32;3.50;72.10
44851;DHT22;30583;48.714;9.386;2023-03-03T04:06:58;3.30;73.10
44851;DHT22;30583;48.714;9.386;2023-03-03T04:09:24;3.50;72.90
44851;DHT22;30583;48.714;9.386;2023-03-03T04:11:49;3.50;72.30
44851;DHT22;30583;48.714;9.386;2023-03-03T04:14:15;3.30;73.40
44851;DHT22;30583;48.714;9.386;2023-03-03T04:16:40;3.10;73.80
44851;DHT22;30583;48.714;9.386;2023-03-03T04:19:06;3.20;74.30
44851;DHT22;30583;48.714;9.386;2023-03-03T04:21:31;3.60;73.30
44851;DHT22;30583;48.714;9.386;2023-03-03T04:23:57;3.80;72.70
44851;DHT22;30583;48.714;9.386;2023-03-03T04:26:23;3.70;72.80
44851;DHT22;30583;48.714;9.386;2023-03-03T04:28:48;3.90;72.20
44851;DHT22;30583;48.714;9.386;2023-03-03T04:31:14;3.70;72.30
44851;DHT22;30583;48.714;9.386;2023-03-03T04:33:39;3.70;72.30
44851;DHT22;30583;48.714;9.386;2023-03-03T04:36:05;4.00;71.70
44851;DHT22;30583;48.714;9.386;2023-03-03T04:38:31;3.90;71.40
44851;DHT22;30583;48.714;9.386;2023-03-03T04:40:57;4.00;71.30
44851;DHT22;30583;48.714;9.386;2023-03-03T04:43:22;4.20;70.90
44851;DHT22;30583;48.714;9.386;2023-03-03T04:45:48;4.10;71.20
44851;DHT22;30583;48.714;9.386;2023-03-03T04:48:14;4.10;71.20
44851;DHT22;30583;48.714;9.386;2023-03-03T04:50:41;4.20;70.80
44851;DHT22;30583;48.714;9.386;2023-03-03T04:53:06;3.90;71.30
44851;DHT22;30583;48.714;9.386;2023-03-03T04:55:34;3.80;71.70
44851;DHT22;30583;48.714;9.386;2023-03-03T04:57:59;3.50;72.30
44851;DHT22;30583;48.714;9.386;2023-03-03T05:00:25;3.80;72.40
44851;DHT22;30583;48.714;9.386;2023-03-03T05:02:52;3.70;71.80
44851;DHT22;30583;48.714;9.386;2023-03-03T05:05:17;3.70;72.30
44851;DHT22;30583;48.714;9.386;2023-03-03T05:07:43;4.00;71.80
44851;DHT22;30583;48.714;9.386;2023-03-03T05:10:09;3.90;71.30
44851;DHT22;30583;48.714;9.386;2023-03-03T05:12:35;3.80;72.30
44851;DHT22;30583;48.714;9.386;2023-03-03T05:15:00;4.00;71.90
44851;DHT22;30583;48.714;9.386;2023-03-03T05:17:26;3.70;72.20
44851;DHT22;30583;48.714;9.386;2023-03-03T05:19:51;3.50;72.70
44851;DHT22;30583;48.714;9.386;2023-03-03T05:22:17;3.60;73.00
44851;DHT22;30583;48.714;9.386;2023-03-03T05:24:42;3.20;74.20
44851;DHT22;30583;48.714;9.386;2023-03-03T05:27:08;3.20;74.90
44851;DHT22;30583;48.714;9.386;2023-03-03T05:29:34;3.30;74.60
44851;DHT22;30583;48.714;9.386;2023-03-03T05:32:00;3.30;74.80
44851;DHT22;30583;48.714;9.386;2023-03-03T05:34:26;3.30;74.60
44851;DHT22;30583;48.714;9.386;2023-03-03T05:36:51;3.50;74.40
44851;DHT22;30583;48.714;9.386;2023-03-03T05:39:17;3.70;73.30
44851;DHT22;30583;48.714;9.386;2023-03-03T05:41:42;3.40;74.00
44851;DHT22;30583;48.714;9.386;2023-03-03T05:44:08;3.60;73.80
44851;DHT22;30583;48.714;9.386;2023-03-03T05:46:33;3.70;73.00
44851;DHT22;30583;48.714;9.386;2023-03-03T05:48:59;4.00;72.20
44851;DHT22;30583;48.714;9.386;2023-03-03T05:51:25;3.90;72.50
44851;DHT22;30583;48.714;9.386;2023-03-03T05:53:50;3.90;72.20
44851;DHT22;30583;48.714;9.386;2023-03-03T05:56:16;3.50;73.40
44851;DHT22;30583;48.714;9.386;2023-03-03T05:58:41;3.70;73.50
44851;DHT22;30583;48.714;9.386;2023-03-03T06:01:07;3.70;73.50
44851;DHT22;30583;48.714;9.386;2023-03-03T06:03:33;3.80;72.90
44851;DHT22;30583;48.714;9.386;2023-03-03T06:05:58;3.80;72.90
44851;DHT22;30583;48.714;9.386;2023-03-03T06:08:24;3.60;73.50
44851;DHT22;30583;48.714;9.386;2023-03-03T06:10:49;3.80;73.20
44851;DHT22;30583;48.714;9.386;2023-03-03T06:13:15;3.70;73.40
44851;DHT22;30583;48.714;9.386;2023-03-03T06:15:41;3.80;73.30
44851;DHT22;30583;48.714;9.386;2023-03-03T06:18:06;3.80;73.40
44851;DHT22;30583;48.714;9.386;2023-03-03T06:20:32;3.70;73.50
44851;DHT22;30583;48.714;9.386;2023-03-03T06:23:00;3.70;73.40
44851;DHT22;30583;48.714;9.386;2023-03-03T06:25:26;3.70;73.30
44851;DHT22;30583;48.714;9.386;2023-03-03T06:27:51;3.90;72.90
44851;DHT22;30583;48.714;9.386;2023-03-03T06:30:17;3.80;72.80
44851;DHT22;30583;48.714;9.386;2023-03-03T06:32:43;4.00;72.80
44851;DHT22;30583;48.714;9.386;2023-03-03T06:35:09;4.10;72.50
44851;DHT22;30583;48.714;9.386;2023-03-03T06:37:35;4.20;72.40
44851;DHT22;30583;48.714;9.386;2023-03-03T06:40:01;4.00;72.50
44851;DHT22;30583;48.714;9.386;2023-03-03T06:42:26;4.10;72.60
44851;DHT22;30583;48.714;9.386;2023-03-03T06:44:52;4.20;72.10
44851;DHT22;30583;48.714;9.386;2023-03-03T06:47:17;4.50;71.50
44851;DHT22;30583;48.714;9.386;2023-03-03T06:49:43;4.20;71.60
44851;DHT22;30583;48.714;9.386;2023-03-03T06:52:16;3.90;72.80
44851;DHT22;30583;48.714;9.386;2023-03-03T06:54:43;3.90;73.10
44851;DHT22;30583;48.714;9.386;2023-03-03T06:57:30;4.50;74.10
44851;DHT22;30583;48.714;9.386;2023-03-03T07:00:17;4.90;73.00
44851;DHT22;30583;48.714;9.386;2023-03-03T07:02:45;5.10;71.50
44851;DHT22;30583;48.714;9.386;2023-03-03T07:05:15;5.00;69.40
44851;DHT22;30583;48.714;9.386;2023-03-03T07:07:41;5.00;70.70
44851;DHT22;30583;48.714;9.386;2023-03-03T07:10:23;5.00;70.30
44851;DHT22;30583;48.714;9.386;2023-03-03T07:12:49;5.20;69.60
44851;DHT22;30583;48.714;9.386;2023-03-03T07:15:19;5.60;68.80
44851;DHT22;30583;48.714;9.386;2023-03-03T07:17:48;5.10;69.20
44851;DHT22;30583;48.714;9.386;2023-03-03T07:20:21;4.90;69.60
44851;DHT22;30583;48.714;9.386;2023-03-03T07:22:47;4.60;70.40
44851;DHT22;30583;48.714;9.386;2023-03-03T07:27:52;4.90;70.40
44851;DHT22;30583;48.714;9.386;2023-03-03T07:30:27;5.10;69.80
44851;DHT22;30583;48.714;9.386;2023-03-03T07:32:55;5.00;69.70
44851;DHT22;30583;48.714;9.386;2023-03-03T07:35:35;4.80;70.50
44851;DHT22;30583;48.714;9.386;2023-03-03T07:38:09;4.90;70.30
44851;DHT22;30583;48.714;9.386;2023-03-03T07:40:53;4.90;70.30
44851;DHT22;30583;48.714;9.386;2023-03-03T07:43:29;4.90;69.50
44851;DHT22;30583;48.714;9.386;2023-03-03T07:46:29;4.70;69.40
44851;DHT22;30583;48.714;9.386;2023-03-03T07:48:59;4.90;69.00
44851;DHT22;30583;48.714;9.386;2023-03-03T07:51:36;5.00;68.30
44851;DHT22;30583;48.714;9.386;2023-03-03T07:56:49;5.10;67.90
44851;DHT22;30583;48.714;9.386;2023-03-03T07:59:23;5.20;67.60
44851;DHT22;30583;48.714;9.386;2023-03-03T08:01:58;5.10;67.40
44851;DHT22;30583;48.714;9.386;2023-03-03T08:04:40;5.00;66.90
44851;DHT22;30583;48.714;9.386;2023-03-03T08:07:25;5.20;66.50
44851;DHT22;30583;48.714;9.386;2023-03-03T08:09:51;5.10;66.60
44851;DHT22;30583;48.714;9.386;2023-03-03T08:14:53;5.10;67.00
44851;DHT22;30583;48.714;9.386;2023-03-03T08:19:48;5.40;66.20
44851;DHT22;30583;48.714;9.386;2023-03-03T08:22:22;5.40;65.90
44851;DHT22;30583;48.714;9.386;2023-03-03T08:24:49;5.20;66.60
44851;DHT22;30583;48.714;9.386;2023-03-03T08:27:15;5.40;66.60
44851;DHT22;30583;48.714;9.386;2023-03-03T08:29:40;5.60;65.50
44851;DHT22;30583;48.714;9.386;2023-03-03T08:32:06;5.70;65.20
44851;DHT22;30583;48.714;9.386;2023-03-03T08:34:31;5.60;65.20
44851;DHT22;30583;48.714;9.386;2023-03-03T08:36:57;5.60;65.50
44851;DHT22;30583;48.714;9.386;2023-03-03T08:39:23;5.60;65.60
44851;DHT22;30583;48.714;9.386;2023-03-03T08:41:48;5.50;65.90
44851;DHT22;30583;48.714;9.386;2023-03-03T08:44:14;5.70;66.00
44851;DHT22;30583;48.714;9.386;2023-03-03T08:46:40;5.70;65.20
44851;DHT22;30583;48.714;9.386;2023-03-03T08:49:05;5.80;64.90
44851;DHT22;30583;48.714;9.386;2023-03-03T08:51:31;5.70;65.00
44851;DHT22;30583;48.714;9.386;2023-03-03T08:53:58;5.40;65.70
44851;DHT22;30583;48.714;9.386;2023-03-03T08:56:24;5.70;65.60
44851;DHT22;30583;48.714;9.386;2023-03-03T08:58:50;6.10;64.50
44851;DHT22;30583;48.714;9.386;2023-03-03T09:01:15;5.90;63.70
44851;DHT22;30583;48.714;9.386;2023-03-03T09:03:42;5.70;63.20
44851;DHT22;30583;48.714;9.386;2023-03-03T09:06:08;6.00;63.20
44851;DHT22;30583;48.714;9.386;2023-03-03T09:08:34;5.80;62.00
44851;DHT22;30583;48.714;9.386;2023-03-03T09:10:59;6.10;61.20
44851;DHT22;30583;48.714;9.386;2023-03-03T09:13:28;6.10;60.40
44851;DHT22;30583;48.714;9.386;2023-03-03T09:15:56;6.10;60.60
44851;DHT22;30583;48.714;9.386;2023-03-03T09:18:41;6.20;60.60
44851;DHT22;30583;48.714;9.386;2023-03-03T09:21:23;6.50;59.70
44851;DHT22;30583;48.714;9.386;2023-03-03T09:23:59;6.40;59.70
44851;DHT22;30583;48.714;9.386;2023-03-03T09:34:23;6.70;59.50
44851;DHT22;30583;48.714;9.386;2023-03-03T09:36:50;6.90;58.70
44851;DHT22;30583;48.714;9.386;2023-03-03T09:39:17;6.80;59.30
44851;DHT22;30583;48.714;9.386;2023-03-03T09:42:18;6.80;59.60
44851;DHT22;30583;48.714;9.386;2023-03-03T09:50:18;6.60;59.90
44851;DHT22;30583;48.714;9.386;2023-03-03T09:53:08;7.10;58.50
44851;DHT22;30583;48.714;9.386;2023-03-03T10:06:32;7.70;57.50
44851;DHT22;30583;48.714;9.386;2023-03-03T10:09:19;7.60;57.70
44851;DHT22;30583;48.714;9.386;2023-03-03T10:15:17;7.40;58.30
44851;DHT22;30583;48.714;9.386;2023-03-03T10:17:50;7.80;58.10
44851;DHT22;30583;48.714;9.386;2023-03-03T10:20:46;8.10;57.30
44851;DHT22;30583;48.714;9.386;2023-03-03T10:23:23;8.10;57.30
44851;DHT22;30583;48.714;9.386;2023-03-03T10:25:58;8.40;56.80
44851;DHT22;30583;48.714;9.386;2023-03-03T10:29:01;8.70;56.30
44851;DHT22;30583;48.714;9.386;2023-03-03T10:34:21;8.50;56.10
44851;DHT22;30583;48.714;9.386;2023-03-03T10:37:22;8.80;56.20
44851;DHT22;30583;48.714;9.386;2023-03-03T10:40:07;9.10;55.40
44851;DHT22;30583;48.714;9.386;2023-03-03T11:02:02;9.60;53.90
44851;DHT22;30583;48.714;9.386;2023-03-03T11:15:42;9.70;54.30
44851;DHT22;30583;48.714;9.386;2023-03-03T11:21:14;9.50;53.00
44851;DHT22;30583;48.714;9.386;2023-03-03T11:40:17;10.40;50.00
44851;DHT22;30583;48.714;9.386;2023-03-03T11:43:05;10.20;51.50
44851;DHT22;30583;48.714;9.386;2023-03-03T11:45:43;10.40;51.60
44851;DHT22;30583;48.714;9.386;2023-03-03T11:54:08;10.60;52.00
44851;DHT22;30583;48.714;9.386;2023-03-03T11:56:42;10.60;51.70
44851;DHT22;30583;48.714;9.386;2023-03-03T12:05:05;13.20;54.30
44851;DHT22;30583;48.714;9.386;2023-03-03T12:07:56;14.30;53.30
44851;DHT22;30583;48.714;9.386;2023-03-03T12:10:32;14.10;51.50
44851;DHT22;30583;48.714;9.386;2023-03-03T12:13:12;14.80;46.30
44851;DHT22;30583;48.714;9.386;2023-03-03T12:16:01;15.20;47.00
44851;DHT22;30583;48.714;9.386;2023-03-03T12:18:46;16.20;44.10
44851;DHT22;30583;48.714;9.386;2023-03-03T12:21:55;15.70;43.00
44851;DHT22;30583;48.714;9.386;2023-03-03T12:24:18;15.40;42.50
44851;DHT22;30583;48.714;9.386;2023-03-03T12:29:37;16.20;43.60
44851;DHT22;30583;48.714;9.386;2023-03-03T12:40:31;15.00;42.80
44851;DHT22;30583;48.714;9.386;2023-03-03T12:46:04;15.70;44.40
44851;DHT22;30583;48.714;9.386;2023-03-03T12:48:44;14.40;42.10
44851;DHT22;30583;48.714;9.386;2023-03-03T12:56:37;14.40;46.40
44851;DHT22;30583;48.714;9.386;2023-03-03T12:59:43;15.60;41.60
44851;DHT22;30583;48.714;9.386;2023-03-03T13:05:05;16.40;40.30
44851;DHT22;30583;48.714;9.386;2023-03-03T13:07:55;14.20;44.60
44851;DHT22;30583;48.714;9.386;2023-03-03T13:10:47;15.20;42.20
44851;DHT22;30583;48.714;9.386;2023-03-03T13:13:44;16.20;42.00
44851;DHT22;30583;48.714;9.386;2023-03-03T13:16:14;15.50;40.90
44851;DHT22;30583;48.714;9.386;2023-03-03T13:18:58;14.20;42.30
44851;DHT22;30583;48.714;9.386;2023-03-03T13:24:27;14.00;44.30
44851;DHT22;30583;48.714;9.386;2023-03-03T13:27:18;13.80;43.70
44851;DHT22;30583;48.714;9.386;2023-03-03T13:35:47;13.60;44.20
44851;DHT22;30583;48.714;9.386;2023-03-03T13:38:30;13.60;44.50
44851;DHT22;30583;48.714;9.386;2023-03-03T13:44:10;14.00;43.50
44851;DHT22;30583;48.714;9.386;2023-03-03T13:46:41;13.20;43.80
44851;DHT22;30583;48.714;9.386;2023-03-03T13:51:56;13.50;44.40
44851;DHT22;30583;48.714;9.386;2023-03-03T13:57:10;14.10;43.40
44851;DHT22;30583;48.714;9.386;2023-03-03T14:05:29;14.30;42.40
44851;DHT22;30583;48.714;9.386;2023-03-03T14:10:57;14.40;42.30
44851;DHT22;30583;48.714;9.386;2023-03-03T14:14:09;14.60;41.90
44851;DHT22;30583;48.714;9.386;2023-03-03T14:17:03;14.80;42.10
44851;DHT22;30583;48.714;9.386;2023-03-03T14:19:39;14.50;41.10
44851;DHT22;30583;48.714;9.386;2023-03-03T14:25:13;15.30;40.20
44851;DHT22;30583;48.714;9.386;2023-03-03T14:32:59;15.50;39.70
44851;DHT22;30583;48.714;9.386;2023-03-03T14:35:29;14.90;40.10
44851;DHT22;30583;48.714;9.386;2023-03-03T14:38:01;14.90;40.90
44851;DHT22;30583;48.714;9.386;2023-03-03T14:40:32;15.40;39.90
44851;DHT22;30583;48.714;9.386;2023-03-03T14:43:00;15.30;39.90
44851;DHT22;30583;48.714;9.386;2023-03-03T14:45:39;14.80;40.10
44851;DHT22;30583;48.714;9.386;2023-03-03T14:48:25;15.40;40.20
44851;DHT22;30583;48.714;9.386;2023-03-03T14:50:59;15.60;39.30
44851;DHT22;30583;48.714;9.386;2023-03-03T14:53:43;15.50;39.00
44851;DHT22;30583;48.714;9.386;2023-03-03T14:56:24;15.20;39.70
44851;DHT22;30583;48.714;9.386;2023-03-03T14:58:54;15.10;39.40
44851;DHT22;30583;48.714;9.386;2023-03-03T15:01:35;15.10;40.20
44851;DHT22;30583;48.714;9.386;2023-03-03T15:04:03;15.00;38.80
44851;DHT22;30583;48.714;9.386;2023-03-03T15:09:39;15.30;39.10
44851;DHT22;30583;48.714;9.386;2023-03-03T15:12:23;15.40;39.20
44851;DHT22;30583;48.714;9.386;2023-03-03T15:14:51;15.50;38.20
44851;DHT22;30583;48.714;9.386;2023-03-03T15:20:04;15.10;38.90
44851;DHT22;30583;48.714;9.386;2023-03-03T15:22:48;14.90;39.20
44851;DHT22;30583;48.714;9.386;2023-03-03T15:33:21;15.30;38.70
44851;DHT22;30583;48.714;9.386;2023-03-03T15:35:58;15.20;39.00
44851;DHT22;30583;48.714;9.386;2023-03-03T15:41:42;15.00;39.00
44851;DHT22;30583;48.714;9.386;2023-03-03T15:44:14;15.00;38.90
44851;DHT22;30583;48.714;9.386;2023-03-03T15:52:31;14.80;39.20
44851;DHT22;30583;48.714;9.386;2023-03-03T16:03:19;14.50;40.10
44851;DHT22;30583;48.714;9.386;2023-03-03T16:08:16;14.10;40.50
44851;DHT22;30583;48.714;9.386;2023-03-03T16:18:51;14.00;40.50
44851;DHT22;30583;48.714;9.386;2023-03-03T16:21:23;13.80;40.90
44851;DHT22;30583;48.714;9.386;2023-03-03T16:23:54;13.70;41.40
44851;DHT22;30583;48.714;9.386;2023-03-03T16:31:36;13.00;42.20
44851;DHT22;30583;48.714;9.386;2023-03-03T16:37:14;12.80;42.70
44851;DHT22;30583;48.714;9.386;2023-03-03T16:39:58;12.70;43.40
44851;DHT22;30583;48.714;9.386;2023-03-03T16:42:28;12.60;43.40
44851;DHT22;30583;48.714;9.386;2023-03-03T16:48:09;12.20;44.50
44851;DHT22;30583;48.714;9.386;2023-03-03T16:53:53;11.90;45.10
44851;DHT22;30583;48.714;9.386;2023-03-03T16:56:40;11.90;45.20
44851;DHT22;30583;48.714;9.386;2023-03-03T16:59:33;11.60;45.90
44851;DHT22;30583;48.714;9.386;2023-03-03T17:04:55;11.50;46.20
44851;DHT22;30583;48.714;9.386;2023-03-03T17:12:53;11.20;46.80
44851;DHT22;30583;48.714;9.386;2023-03-03T17:20:38;10.70;48.00
44851;DHT22;30583;48.714;9.386;2023-03-03T17:26:23;10.30;48.90
44851;DHT22;30583;48.714;9.386;2023-03-03T17:29:04;10.20;49.70
44851;DHT22;30583;48.714;9.386;2023-03-03T17:42:55;9.70;52.30
44851;DHT22;30583;48.714;9.386;2023-03-03T17:45:24;9.50;52.80
44851;DHT22;30583;48.714;9.386;2023-03-03T17:48:02;9.50;52.90
44851;DHT22;30583;48.714;9.386;2023-03-03T18:07:22;9.10;53.60
44851;DHT22;30583;48.714;9.386;2023-03-03T18:13:15;8.70;54.50
44851;DHT22;30583;48.714;9.386;2023-03-03T18:16:17;9.00;54.20
44851;DHT22;30583;48.714;9.386;2023-03-03T18:19:02;9.00;53.80
44851;DHT22;30583;48.714;9.386;2023-03-03T18:40:57;8.50;55.70
44851;DHT22;30583;48.714;9.386;2023-03-03T18:49:07;8.30;56.20
44851;DHT22;30583;48.714;9.386;2023-03-03T19:02:20;7.90;58.00
44851;DHT22;30583;48.714;9.386;2023-03-03T19:04:54;7.80;58.00
44851;DHT22;30583;48.714;9.386;2023-03-03T19:07:24;7.80;58.10
44851;DHT22;30583;48.714;9.386;2023-03-03T19:09:57;7.80;58.10
44851;DHT22;30583;48.714;9.386;2023-03-03T19:12:57;7.80;57.90
44851;DHT22;30583;48.714;9.386;2023-03-03T19:15:45;7.90;57.80
44851;DHT22;30583;48.714;9.386;2023-03-03T19:18:20;7.50;58.80
44851;DHT22;30583;48.714;9.386;2023-03-03T19:21:35;7.50;59.20
44851;DHT22;30583;48.714;9.386;2023-03-03T19:24:25;7.30;59.60
44851;DHT22;30583;48.714;9.386;2023-03-03T19:27:27;7.30;59.60
44851;DHT22;30583;48.714;9.386;2023-03-03T19:30:06;7.30;59.80
44851;DHT22;30583;48.714;9.386;2023-03-03T19:44:46;7.20;60.50
44851;DHT22;30583;48.714;9.386;2023-03-03T19:47:24;6.90;61.20
44851;DHT22;30583;48.714;9.386;2023-03-03T19:58:15;6.70;62.20
44851;DHT22;30583;48.714;9.386;2023-03-03T20:01:06;6.50;62.70
44851;DHT22;30583;48.714;9.386;2023-03-03T20:03:53;6.40;63.10
44851;DHT22;30583;48.714;9.386;2023-03-03T20:07:12;6.70;62.60
44851;DHT22;30583;48.714;9.386;2023-03-03T20:10:41;6.50;62.70
44851;DHT22;30583;48.714;9.386;2023-03-03T20:12:51;6.70;62.50
44851;DHT22;30583;48.714;9.386;2023-03-03T20:15:37;6.30;62.80
44851;DHT22;30583;48.714;9.386;2023-03-03T20:29:24;6.10;63.00
44851;DHT22;30583;48.714;9.386;2023-03-03T20:32:17;6.20;63.00
44851;DHT22;30583;48.714;9.386;2023-03-03T20:43:18;5.70;63.70
44851;DHT22;30583;48.714;9.386;2023-03-03T20:46:06;5.60;64.10
44851;DHT22;30583;48.714;9.386;2023-03-03T20:49:06;5.70;64.10
44851;DHT22;30583;48.714;9.386;2023-03-03T20:57:11;5.50;64.70
44851;DHT22;30583;48.714;9.386;2023-03-03T20:59:58;5.10;65.60
44851;DHT22;30583;48.714;9.386;2023-03-03T21:02:41;5.40;65.10
44851;DHT22;30583;48.714;9.386;2023-03-03T21:07:36;5.30;64.70
44851;DHT22;30583;48.714;9.386;2023-03-03T21:10:17;5.30;65.10
44851;DHT22;30583;48.714;9.386;2023-03-03T21:12:52;5.50;64.80
44851;DHT22;30583;48.714;9.386;2023-03-03T21:15:28;5.10;65.10
44851;DHT22;30583;48.714;9.386;2023-03-03T21:17:55;5.30;64.80
44851;DHT22;30583;48.714;9.386;2023-03-03T21:22:48;5.20;65.70
44851;DHT22;30583;48.714;9.386;2023-03-03T21:25:46;5.20;65.50
44851;DHT22;30583;48.714;9.386;2023-03-03T21:30:59;5.20;65.20
44851;DHT22;30583;48.714;9.386;2023-03-03T21:33:53;5.30;64.50
44851;DHT22;30583;48.714;9.386;2023-03-03T21:38:56;5.10;65.70
44851;DHT22;30583;48.714;9.386;2023-03-03T21:41:23;5.10;65.00
44851;DHT22;30583;48.714;9.386;2023-03-03T21:43:51;5.00;65.70
44851;DHT22;30583;48.714;9.386;2023-03-03T21:46:19;4.90;65.90
44851;DHT22;30583;48.714;9.386;2023-03-03T21:48:45;5.00;65.60
44851;DHT22;30583;48.714;9.386;2023-03-03T21:51:11;4.80;66.50
44851;DHT22;30583;48.714;9.386;2023-03-03T21:53:39;4.70;66.50
44851;DHT22;30583;48.714;9.386;2023-03-03T21:56:05;4.80;66.80
44851;DHT22;30583;48.714;9.386;2023-03-03T21:58:31;4.60;67.10
44851;DHT22;30583;48.714;9.386;2023-03-03T22:00:57;4.30;67.30
44851;DHT22;30583;48.714;9.386;2023-03-03T22:03:22;4.10;68.60
44851;DHT22;30583;48.714;9.386;2023-03-03T22:05:48;4.50;68.10
44851;DHT22;30583;48.714;9.386;2023-03-03T22:08:14;4.50;67.10
44851;DHT22;30583;48.714;9.386;2023-03-03T22:10:47;4.50;67.30
44851;DHT22;30583;48.714;9.386;2023-03-03T22:13:16;4.60;67.10
44851;DHT22;30583;48.714;9.386;2023-03-03T22:15:45;4.50;67.10
44851;DHT22;30583;48.714;9.386;2023-03-03T22:18:10;3.90;68.30
44851;DHT22;30583;48.714;9.386;2023-03-03T22:20:36;4.30;67.90
44851;DHT22;30583;48.714;9.386;2023-03-03T22:23:01;4.40;67.30
44851;DHT22;30583;48.714;9.386;2023-03-03T22:25:27;4.60;66.70
44851;DHT22;30583;48.714;9.386;2023-03-03T22:27:52;4.40;67.20
44851;DHT22;30583;48.714;9.386;2023-03-03T22:30:18;4.20;67.70
44851;DHT22;30583;48.714;9.386;2023-03-03T22:32:44;3.90;68.40
44851;DHT22;30583;48.714;9.386;2023-03-03T22:35:09;3.90;69.40